Time;durP1;ratioP1;P1;durP2;ratioP2;P2;SDS_P1;SDS_P2;PMS_P1;PMS_P2;Temp;Humidity;BMP_temperature;BMP_pressure;BME280_temperature;BME280_humidity;BME280_pressure;Samples;Min_cycle;Max_cycle;Signal;HPM_P1;HPM_P2
2023/06/27 00:00:13;;;;;;;;;4.00;2.00;;;;;-143.57;100.00;65101.44;5096330;27;52621;-41
2023/06/27 00:02:40;;;;;;;;;2.20;2.00;;;;;-143.57;100.00;65101.44;5096769;27;45391;-45
2023/06/27 00:05:06;;;;;;;;;2.00;1.40;;;;;-143.57;100.00;65101.44;5097641;27;45222;-44
2023/06/27 00:07:31;;;;;;;;;1.00;1.00;;;;;-143.57;100.00;65101.44;5100224;27;45533;-45
2023/06/27 00:09:57;;;;;;;;;4.50;1.75;;;;;-143.57;100.00;65101.44;5100136;27;46026;-44
2023/06/27 00:12:22;;;;;;;;;3.25;1.25;;;;;-143.57;100.00;65101.44;5100193;27;45496;-44
2023/06/27 00:14:48;;;;;;;;;1.00;1.00;;;;;-143.57;100.00;65101.44;5100359;27;45403;-43
2023/06/27 00:17:16;;;;;;;;;2.00;1.00;;;;;-143.57;100.00;65101.44;5100442;27;45432;-45
2023/06/27 00:19:44;;;;;;;;;2.20;1.80;;;;;-143.57;100.00;65101.44;5099832;27;46923;-45
2023/06/27 00:22:10;;;;;;;;;4.20;1.60;;;;;-143.57;100.00;65101.44;5099696;27;45355;-43
2023/06/27 00:24:36;;;;;;;;;3.00;1.00;;;;;-143.57;100.00;65101.44;5099981;27;45320;-45
2023/06/27 00:27:02;;;;;;;;;2.25;2.00;;;;;-143.57;100.00;65101.44;5100115;27;45284;-43
2023/06/27 00:29:27;;;;;;;;;2.00;1.25;;;;;-143.57;100.00;65101.44;5081424;27;45288;-44
2023/06/27 00:31:53;;;;;;;;;3.75;2.00;;;;;-143.57;100.00;65101.44;5081233;27;45500;-46
2023/06/27 00:34:18;;;;;;;;;3.00;1.00;;;;;-143.57;100.00;65101.44;5099802;27;45553;-44
2023/06/27 00:36:44;;;;;;;;;5.25;1.00;;;;;-143.57;100.00;65101.44;5099745;27;45490;-45
2023/06/27 00:39:10;;;;;;;;;1.75;1.75;;;;;-143.57;100.00;65101.44;5099566;27;46181;-44
2023/06/27 00:41:35;;;;;;;;;1.75;1.75;;;;;-143.57;100.00;65101.44;5099543;27;45308;-44
2023/06/27 00:44:06;;;;;;;;;3.75;0.25;;;;;-143.57;100.00;65101.44;5099846;27;45644;-42
2023/06/27 00:46:36;;;;;;;;;1.75;1.75;;;;;-143.57;100.00;65101.44;5099038;27;45288;-43
2023/06/27 00:49:02;;;;;;;;;3.25;2.50;;;;;-143.57;100.00;65101.44;5099521;27;45314;-43
2023/06/27 00:51:27;;;;;;;;;4.00;2.00;;;;;-143.57;100.00;65101.44;5099592;27;45416;-45
2023/06/27 00:53:53;;;;;;;;;3.25;2.75;;;;;-143.57;100.00;65101.44;5099346;27;45297;-44
2023/06/27 00:56:19;;;;;;;;;2.25;1.00;;;;;-143.57;100.00;65101.44;5099779;27;45368;-44
2023/06/27 00:58:45;;;;;;;;;3.25;2.00;;;;;-143.57;100.00;65101.44;5099183;27;46178;-44
2023/06/27 01:01:10;;;;;;;;;2.00;2.00;;;;;-143.57;100.00;65101.44;5098849;27;45374;-44
2023/06/27 01:03:36;;;;;;;;;4.75;0.00;;;;;-143.57;100.00;65101.44;5098969;27;45301;-44
2023/06/27 01:06:07;;;;;;;;;3.25;1.00;;;;;-143.57;100.00;65101.44;5099522;27;45478;-43
2023/06/27 01:08:41;;;;;;;;;2.00;1.00;;;;;-143.57;100.00;65101.44;5098965;27;46180;-44
2023/06/27 01:11:20;;;;;;;;;4.40;1.20;;;;;-143.57;100.00;65101.44;5099033;27;45304;-44
2023/06/27 01:13:50;;;;;;;;;1.75;1.00;;;;;-143.57;100.00;65101.44;5099329;27;45381;-43
2023/06/27 01:16:19;;;;;;;;;2.00;2.00;;;;;-143.57;100.00;65101.44;5098372;27;45541;-44
2023/06/27 01:18:46;;;;;;;;;1.25;1.25;;;;;-143.57;100.00;65101.44;5098561;27;46414;-45
2023/06/27 01:21:12;;;;;;;;;4.00;1.00;;;;;-143.57;100.00;65101.44;5098900;27;45358;-44
2023/06/27 01:23:53;;;;;;;;;2.50;2.00;;;;;-143.57;100.00;65101.44;5098964;27;45454;-45
2023/06/27 01:26:19;;;;;;;;;2.00;2.00;;;;;-143.57;100.00;65101.44;5099047;27;45341;-45
2023/06/27 01:28:44;;;;;;;;;1.25;1.25;;;;;-143.57;100.00;65101.44;5098606;27;46014;-44
2023/06/27 01:31:26;;;;;;;;;1.25;1.00;;;;;-143.57;100.00;65101.44;5098817;27;45383;-44
2023/06/27 01:34:00;;;;;;;;;3.00;2.00;;;;;-143.57;100.00;65101.44;5098398;27;45331;-44
2023/06/27 01:36:40;;;;;;;;;1.00;0.50;;;;;-143.57;100.00;65101.44;5099110;27;45502;-44
2023/06/27 01:39:10;;;;;;;;;1.00;1.00;;;;;-143.57;100.00;65101.44;5098289;27;45677;-45
2023/06/27 01:41:38;;;;;;;;;1.60;1.00;;;;;-143.57;100.00;65101.44;5098590;27;45451;-42
2023/06/27 01:44:06;;;;;;;;;2.00;2.00;;;;;-143.57;100.00;65101.44;5098682;27;45278;-45
2023/06/27 01:46:32;;;;;;;;;1.50;1.25;;;;;-143.57;100.00;65101.44;5099003;27;45233;-44
2023/06/27 01:48:59;;;;;;;;;3.75;1.50;;;;;-143.57;100.00;65101.44;5098333;27;45475;-43
2023/06/27 01:51:24;;;;;;;;;3.00;1.60;;;;;-143.57;100.00;65101.44;5098549;27;45383;-45
2023/06/27 01:53:50;;;;;;;;;1.00;1.00;;;;;-143.57;100.00;65101.44;5097744;27;45348;-44
2023/06/27 01:56:15;;;;;;;;;3.50;1.00;;;;;-143.57;100.00;65101.44;5098709;27;45409;-43
2023/06/27 01:58:41;;;;;;;;;2.25;1.50;;;;;-143.57;100.00;65101.44;5098425;27;46907;-44
2023/06/27 02:01:06;;;;;;;;;3.00;1.50;;;;;-143.57;100.00;65101.44;5098233;27;45323;-44
2023/06/27 02:03:31;;;;;;;;;1.75;1.75;;;;;-143.57;100.00;65101.44;5099320;27;45248;-44
2023/06/27 02:05:57;;;;;;;;;1.00;1.00;;;;;-143.57;100.00;65101.44;5099693;27;45286;-44
2023/06/27 02:08:22;;;;;;;;;1.00;1.00;;;;;-143.57;100.00;65101.44;5098236;27;45405;-43
2023/06/27 02:10:47;;;;;;;;;3.50;1.00;;;;;-143.57;100.00;65101.44;5098245;27;45338;-44
2023/06/27 02:13:13;;;;;;;;;3.00;1.00;;;;;-143.57;100.00;65101.44;5098238;27;45369;-43
2023/06/27 02:15:38;;;;;;;;;2.00;1.00;;;;;-143.57;100.00;65101.44;5098071;27;45423;-44
2023/06/27 02:18:04;;;;;;;;;1.00;1.00;;;;;-143.57;100.00;65101.44;5098072;27;46021;-45
2023/06/27 02:20:32;;;;;;;;;3.50;2.00;;;;;-143.57;100.00;65101.44;5097889;27;45661;-44
2023/06/27 02:22:58;;;;;;;;;1.00;1.00;;;;;-143.57;100.00;65101.44;5098049;27;45444;-45
2023/06/27 02:25:23;;;;;;;;;0.25;0.25;;;;;-143.57;100.00;65101.44;5098351;27;45390;-44
2023/06/27 02:27:49;;;;;;;;;1.25;1.25;;;;;-143.57;100.00;65101.44;5097602;27;46120;-43
2023/06/27 02:30:15;;;;;;;;;3.00;1.25;;;;;-143.57;100.00;65101.44;5098072;27;45260;-43
2023/06/27 02:32:40;;;;;;;;;5.75;0.00;;;;;-143.57;100.00;65101.44;5097172;27;45490;-42
2023/06/27 02:35:06;;;;;;;;;1.75;1.00;;;;;-143.57;100.00;65101.44;5097824;27;45330;-44
2023/06/27 02:37:31;;;;;;;;;1.00;1.00;;;;;-143.57;100.00;65101.44;5097939;27;45390;-45
2023/06/27 02:39:57;;;;;;;;;3.25;2.00;;;;;-143.57;100.00;65101.44;5097594;27;45255;-46
2023/06/27 02:42:22;;;;;;;;;1.75;1.00;;;;;-143.57;100.00;65101.44;5098849;27;45437;-44
2023/06/27 02:44:48;;;;;;;;;4.00;2.00;;;;;-143.57;100.00;65101.44;5098415;27;45315;-44
2023/06/27 02:47:14;;;;;;;;;2.75;1.25;;;;;-143.57;100.00;65101.44;5097474;27;45536;-46
2023/06/27 02:49:40;;;;;;;;;1.00;1.00;;;;;-143.57;100.00;65101.44;5097582;27;45308;-45
2023/06/27 02:52:06;;;;;;;;;2.00;1.00;;;;;-143.57;100.00;65101.44;5097672;27;45347;-44
2023/06/27 02:54:31;;;;;;;;;3.50;2.00;;;;;-143.57;100.00;65101.44;5097897;27;45212;-44
2023/06/27 02:56:56;;;;;;;;;3.25;1.75;;;;;-143.57;100.00;65101.44;5095985;27;46125;-42
2023/06/27 02:59:22;;;;;;;;;2.75;1.75;;;;;-143.57;100.00;65101.44;5097291;27;45371;-44
2023/06/27 03:01:47;;;;;;;;;3.00;1.75;;;;;-143.57;100.00;65101.44;5097684;27;45341;-44
2023/06/27 03:04:20;;;;;;;;;2.75;2.00;;;;;-143.57;100.00;65101.44;5096189;27;45470;-44
2023/06/27 03:06:45;;;;;;;;;0.00;0.00;;;;;-143.57;100.00;65101.44;5097513;27;46995;-43
2023/06/27 03:09:11;;;;;;;;;1.00;1.00;;;;;-143.57;100.00;65101.44;5097141;27;45278;-44
2023/06/27 03:11:36;;;;;;;;;2.25;1.00;;;;;-143.57;100.00;65101.44;5097257;27;45231;-43
2023/06/27 03:14:01;;;;;;;;;4.75;2.00;;;;;-143.57;100.00;65101.44;5097462;27;45443;-44
2023/06/27 03:16:27;;;;;;;;;3.00;1.00;;;;;-143.57;100.00;65101.44;5097279;27;45329;-43
2023/06/27 03:18:52;;;;;;;;;3.00;2.00;;;;;-143.57;100.00;65101.44;5097343;27;45213;-44
2023/06/27 03:21:19;;;;;;;;;2.25;2.25;;;;;-143.57;100.00;65101.44;5097430;27;45289;-42
2023/06/27 03:23:47;;;;;;;;;4.25;2.00;;;;;-143.57;100.00;65101.44;5097165;27;45425;-44
2023/06/27 03:26:12;;;;;;;;;2.25;1.00;;;;;-143.57;100.00;65101.44;5097118;27;45981;-42
2023/06/27 03:28:39;;;;;;;;;2.00;2.00;;;;;-143.57;100.00;65101.44;5096831;27;45380;-45
2023/06/27 03:31:05;;;;;;;;;3.75;2.00;;;;;-143.57;100.00;65101.44;5097285;27;45241;-43
2023/06/27 03:33:30;;;;;;;;;2.75;2.00;;;;;-143.57;100.00;65101.44;5097156;27;46920;-43
2023/06/27 03:35:56;;;;;;;;;2.00;2.00;;;;;-143.57;100.00;65101.44;5096907;27;50286;-46
2023/06/27 03:38:21;;;;;;;;;5.25;1.75;;;;;-143.57;100.00;65101.44;5097057;27;45249;-44
2023/06/27 03:40:46;;;;;;;;;3.00;3.00;;;;;-143.57;100.00;65101.44;5098432;27;45317;-44
2023/06/27 03:43:13;;;;;;;;;2.00;2.00;;;;;-143.57;100.00;65101.44;5101088;27;45412;-43
2023/06/27 03:45:40;;;;;;;;;3.50;2.00;;;;;-143.57;100.00;65101.44;5100678;27;46222;-43
2023/06/27 03:48:06;;;;;;;;;2.75;2.00;;;;;-143.57;100.00;65101.44;5100598;27;45481;-44
2023/06/27 03:50:32;;;;;;;;;1.75;1.50;;;;;-143.57;100.00;65101.44;5100763;27;45406;-43
2023/06/27 03:52:57;;;;;;;;;4.50;2.25;;;;;-143.57;100.00;65101.44;5100767;27;45282;-45
2023/06/27 03:55:23;;;;;;;;;7.00;2.25;;;;;-143.57;100.00;65101.44;5100292;27;46253;-44
2023/06/27 03:57:49;;;;;;;;;4.25;1.00;;;;;-143.57;100.00;65101.44;5100735;27;45430;-46
2023/06/27 04:00:15;;;;;;;;;2.75;2.75;;;;;-143.57;100.00;65101.44;5100503;27;45286;-43
2023/06/27 04:02:40;;;;;;;;;3.00;3.00;;;;;-143.57;100.00;65101.44;5100721;27;45344;-43
2023/06/27 04:05:06;;;;;;;;;2.50;2.00;;;;;-143.57;100.00;65101.44;5099567;27;45155;-43
2023/06/27 04:07:31;;;;;;;;;4.50;2.00;;;;;-143.57;100.00;65101.44;5100351;27;45391;-44
2023/06/27 04:09:56;;;;;;;;;1.00;1.00;;;;;-143.57;100.00;65101.44;5100122;27;45318;-44
2023/06/27 04:12:22;;;;;;;;;6.00;3.00;;;;;-143.57;100.00;65101.44;5100357;27;45430;-43
2023/06/27 04:14:47;;;;;;;;;2.00;2.00;;;;;-143.57;100.00;65101.44;5100005;27;46519;-47
2023/06/27 04:17:12;;;;;;;;;4.25;2.00;;;;;-143.57;100.00;65101.44;5098351;27;45309;-44
2023/06/27 04:19:38;;;;;;;;;2.00;1.25;;;;;-143.57;100.00;65101.44;5100162;27;45347;-45
2023/06/27 04:22:03;;;;;;;;;1.00;1.00;;;;;-143.57;100.00;65101.44;5100405;27;45229;-44
2023/06/27 04:24:29;;;;;;;;;2.75;2.75;;;;;-143.57;100.00;65101.44;5099813;27;46488;-43
2023/06/27 04:26:54;;;;;;;;;3.00;2.50;;;;;-143.57;100.00;65101.44;5099803;27;45311;-43
2023/06/27 04:29:19;;;;;;;;;3.00;2.50;;;;;-143.57;100.00;65101.44;5099834;27;45348;-45
2023/06/27 04:31:45;;;;;;;;;2.25;1.50;;;;;-143.57;100.00;65101.44;5100168;27;45307;-43
2023/06/27 04:34:11;;;;;;;;;1.75;1.75;;;;;-143.57;100.00;65101.44;5099560;27;46173;-44
2023/06/27 04:36:40;;;;;;;;;1.50;1.25;;;;;-143.57;100.00;65101.44;5099642;27;45343;-44
2023/06/27 04:39:08;;;;;;;;;3.75;3.00;;;;;-143.57;100.00;65101.44;5099484;27;45567;-45
2023/06/27 04:41:33;;;;;;;;;3.50;2.00;;;;;-143.57;100.00;65101.44;5099880;27;45438;-42
2023/06/27 04:43:59;;;;;;;;;6.00;2.50;;;;;-143.57;100.00;65101.44;5099482;27;45256;-43
2023/06/27 04:46:28;;;;;;;;;1.50;1.50;;;;;-143.57;100.00;65101.44;5099382;27;45415;-44
2023/06/27 04:48:56;;;;;;;;;2.25;2.25;;;;;-143.57;100.00;65101.44;5099716;27;45423;-44
2023/06/27 04:51:22;;;;;;;;;3.25;2.00;;;;;-143.57;100.00;65101.44;5099633;27;45430;-41
2023/06/27 04:53:47;;;;;;;;;6.50;2.00;;;;;-143.57;100.00;65101.44;5099323;27;46762;-43
2023/06/27 04:56:12;;;;;;;;;3.75;3.25;;;;;-143.57;100.00;65101.44;5099471;27;45342;-44
2023/06/27 04:58:38;;;;;;;;;2.50;2.00;;;;;-143.57;100.00;65101.44;5099934;27;45380;-43
2023/06/27 05:01:03;;;;;;;;;3.75;0.25;;;;;-143.57;100.00;65101.44;5099301;27;45332;-42
2023/06/27 05:03:28;;;;;;;;;3.25;1.25;;;;;-143.57;100.00;65101.44;5099257;27;46112;-44
2023/06/27 05:05:54;;;;;;;;;2.25;2.25;;;;;-143.57;100.00;65101.44;5099181;27;45390;-44
2023/06/27 05:08:19;;;;;;;;;2.00;2.00;;;;;-143.57;100.00;65101.44;5099419;27;45422;-43
2023/06/27 05:10:44;;;;;;;;;3.25;3.00;;;;;-143.57;100.00;65101.44;5099502;27;45421;-44
2023/06/27 05:13:10;;;;;;;;;3.50;2.50;;;;;-143.57;100.00;65101.44;5080517;27;45818;-43
2023/06/27 05:15:35;;;;;;;;;2.00;2.00;;;;;-143.57;100.00;65101.44;5099145;27;45358;-43
2023/06/27 05:18:06;;;;;;;;;1.75;1.75;;;;;-143.57;100.00;65101.44;5098937;27;45284;-43
2023/06/27 05:20:32;;;;;;;;;2.75;2.75;;;;;-143.57;100.00;65101.44;5099306;27;45201;-43
2023/06/27 05:22:57;;;;;;;;;2.25;2.25;;;;;-143.57;100.00;65101.44;5099020;27;46038;-45
2023/06/27 05:25:22;;;;;;;;;1.75;1.50;;;;;-143.57;100.00;65101.44;5098901;27;45336;-44
2023/06/27 05:27:48;;;;;;;;;3.25;3.00;;;;;-143.57;100.00;65101.44;5098672;27;45384;-43
2023/06/27 05:30:13;;;;;;;;;4.00;2.00;;;;;-143.57;100.00;65101.44;5099319;27;45159;-42
2023/06/27 05:32:39;;;;;;;;;5.25;3.25;;;;;-143.57;100.00;65101.44;5097865;27;46020;-43
2023/06/27 05:35:04;;;;;;;;;5.25;3.75;;;;;-143.57;100.00;65101.44;5098643;27;45435;-43
2023/06/27 05:37:30;;;;;;;;;3.50;2.25;;;;;-143.57;100.00;65101.44;5098123;27;45513;-43
2023/06/27 05:39:55;;;;;;;;;4.00;3.50;;;;;-143.57;100.00;65101.44;5098796;27;45332;-43
2023/06/27 05:42:20;;;;;;;;;4.00;2.00;;;;;-143.57;100.00;65101.44;5098527;27;46506;-42
2023/06/27 05:44:46;;;;;;;;;3.00;2.00;;;;;-143.57;100.00;65101.44;5098498;27;45524;-43
2023/06/27 05:47:12;;;;;;;;;6.25;3.00;;;;;-143.57;100.00;65101.44;5098652;27;45475;-44
2023/06/27 05:49:37;;;;;;;;;2.25;2.25;;;;;-143.57;100.00;65101.44;5098859;27;45299;-43
2023/06/27 05:52:02;;;;;;;;;4.50;2.25;;;;;-143.57;100.00;65101.44;5098599;27;45325;-41
2023/06/27 05:54:28;;;;;;;;;7.25;3.00;;;;;-143.57;100.00;65101.44;5098377;27;45334;-43
2023/06/27 05:56:53;;;;;;;;;6.00;2.75;;;;;-143.57;100.00;65101.44;5098537;27;45339;-44
2023/06/27 05:59:19;;;;;;;;;4.00;4.00;;;;;-143.57;100.00;65101.44;5099020;27;45255;-44
2023/06/27 06:01:44;;;;;;;;;4.00;4.00;;;;;-143.57;100.00;65101.44;5098645;27;45845;-44
2023/06/27 06:04:10;;;;;;;;;3.00;3.00;;;;;-143.57;100.00;65101.44;5098470;27;45258;-43
2023/06/27 06:06:38;;;;;;;;;3.00;3.00;;;;;-143.57;100.00;65101.44;5098599;27;45460;-43
2023/06/27 06:09:06;;;;;;;;;5.00;2.00;;;;;-143.57;100.00;65101.44;5098601;27;45519;-44
2023/06/27 06:11:36;;;;;;;;;5.00;5.00;;;;;-143.57;100.00;65101.44;5098542;27;46321;-43
2023/06/27 06:14:02;;;;;;;;;5.25;3.25;;;;;-143.57;100.00;65101.44;5098622;27;45371;-42
2023/06/27 06:16:31;;;;;;;;;3.25;2.25;;;;;-143.57;100.00;65101.44;5097444;27;45301;-42
2023/06/27 06:18:57;;;;;;;;;5.75;3.50;;;;;-143.57;100.00;65101.44;5099146;27;45297;-42
2023/06/27 06:21:22;;;;;;;;;5.50;4.00;;;;;-143.57;100.00;65101.44;5098434;27;45246;-40
2023/06/27 06:23:47;;;;;;;;;3.50;2.75;;;;;-143.57;100.00;65101.44;5098471;27;45396;-44
2023/06/27 06:26:13;;;;;;;;;1.25;1.25;;;;;-143.57;100.00;65101.44;5096728;27;45718;-45
2023/06/27 06:28:38;;;;;;;;;3.75;3.00;;;;;-143.57;100.00;65101.44;5098244;27;45437;-42
2023/06/27 06:31:04;;;;;;;;;7.00;3.00;;;;;-143.57;100.00;65101.44;5098011;27;51549;-44
2023/06/27 06:33:30;;;;;;;;;3.00;3.00;;;;;-143.57;100.00;65101.44;5098003;27;45387;-44
2023/06/27 06:35:55;;;;;;;;;5.00;2.50;;;;;-143.57;100.00;65101.44;5097274;27;45262;-43
2023/06/27 06:38:20;;;;;;;;;11.00;4.50;;;;;-143.57;100.00;65101.44;5097147;27;45559;-46
2023/06/27 06:40:46;;;;;;;;;3.00;3.00;;;;;-143.57;100.00;65101.44;5096541;27;47104;-45
2023/06/27 06:43:11;;;;;;;;;6.50;5.50;;;;;-143.57;100.00;65101.44;5098452;27;45399;-49
2023/06/27 06:45:36;;;;;;;;;5.75;4.75;;;;;-143.57;100.00;65101.44;5098277;27;45376;-47
2023/06/27 06:48:02;;;;;;;;;7.25;7.25;;;;;-143.57;100.00;65101.44;5080005;27;45271;-46
2023/06/27 06:50:28;;;;;;;;;5.75;5.75;;;;;-143.57;100.00;65101.44;5097899;27;46117;-41
2023/06/27 06:52:53;;;;;;;;;5.00;3.25;;;;;-143.57;100.00;65101.44;5079109;27;45262;-43
2023/06/27 06:55:18;;;;;;;;;3.50;3.50;;;;;-143.57;100.00;65101.44;5097858;27;45357;-42
2023/06/27 06:57:44;;;;;;;;;4.50;2.00;;;;;-143.57;100.00;65101.44;5097824;27;45471;-44
2023/06/27 07:00:09;;;;;;;;;4.75;3.50;;;;;-143.57;100.00;65101.44;5097513;27;46078;-43
2023/06/27 07:02:35;;;;;;;;;5.00;3.25;;;;;-143.57;100.00;65101.44;5097533;27;45325;-44
2023/06/27 07:05:00;;;;;;;;;4.25;2.00;;;;;-143.57;100.00;65101.44;5097488;27;45305;-42
2023/06/27 07:07:26;;;;;;;;;4.75;3.00;;;;;-143.57;100.00;65101.44;5079507;27;45640;-43
2023/06/27 07:09:51;;;;;;;;;2.25;2.00;;;;;-143.57;100.00;65101.44;5078804;27;45940;-42
2023/06/27 07:12:16;;;;;;;;;5.00;4.00;;;;;-143.57;100.00;65101.44;5097015;27;50385;-43
2023/06/27 07:14:42;;;;;;;;;3.00;3.00;;;;;-143.57;100.00;65101.44;5097827;27;45305;-41
2023/06/27 07:17:07;;;;;;;;;2.75;2.75;;;;;-143.57;100.00;65101.44;5101230;27;45324;-45
2023/06/27 07:19:32;;;;;;;;;2.25;2.25;;;;;-143.57;100.00;65101.44;5082484;27;45985;-41
2023/06/27 07:21:58;;;;;;;;;4.50;2.00;;;;;-143.57;100.00;65101.44;5100927;27;45339;-42
2023/06/27 07:24:23;;;;;;;;;3.00;1.50;;;;;-143.57;100.00;65101.44;5100326;27;45368;-41
2023/06/27 07:26:50;;;;;;;;;7.25;2.75;;;;;-143.57;100.00;65101.44;5100884;27;45408;-42
2023/06/27 07:29:17;;;;;;;;;4.20;3.00;;;;;-143.57;100.00;65101.44;5099825;27;45395;-43
2023/06/27 07:31:43;;;;;;;;;2.20;2.20;;;;;-143.57;100.00;65101.44;5100840;27;45312;-45
2023/06/27 07:34:08;;;;;;;;;2.00;2.00;;;;;-143.57;100.00;65101.44;5101020;27;45492;-42
2023/06/27 07:36:33;;;;;;;;;4.75;3.00;;;;;-143.57;100.00;65101.44;5101034;27;45211;-42
2023/06/27 07:38:59;;;;;;;;;4.50;4.50;;;;;-143.57;100.00;65101.44;5101020;27;45607;-43
2023/06/27 07:41:25;;;;;;;;;5.50;2.00;;;;;-143.57;100.00;65101.44;5100418;27;45445;-42
2023/06/27 07:43:50;;;;;;;;;3.20;3.20;;;;;-143.57;100.00;65101.44;5100892;27;45476;-44
2023/06/27 07:46:16;;;;;;;;;7.00;4.00;;;;;-143.57;100.00;65101.44;5100807;27;45352;-42
2023/06/27 07:48:41;;;;;;;;;7.00;4.00;;;;;-143.57;100.00;65101.44;5100559;27;45355;-44
2023/06/27 07:51:06;;;;;;;;;4.25;3.00;;;;;-143.57;100.00;65101.44;5100221;27;45325;-43
2023/06/27 07:53:32;;;;;;;;;5.75;2.25;;;;;-143.57;100.00;65101.44;5100649;27;45357;-43
2023/06/27 07:55:57;;;;;;;;;2.00;2.00;;;;;-143.57;100.00;65101.44;5100553;27;45407;-45
2023/06/27 07:58:22;;;;;;;;;3.75;2.00;;;;;-143.57;100.00;65101.44;5100364;27;45467;-42
2023/06/27 08:00:48;;;;;;;;;6.00;4.00;;;;;-143.57;100.00;65101.44;5100277;27;45392;-43
2023/06/27 08:03:13;;;;;;;;;9.00;6.25;;;;;-143.57;100.00;65101.44;5100275;27;45371;-42
2023/06/27 08:05:39;;;;;;;;;5.00;5.00;;;;;-143.57;100.00;65101.44;5100615;27;45377;-42
2023/06/27 08:08:04;;;;;;;;;2.50;2.00;;;;;-143.57;100.00;65101.44;5099828;27;46193;-46
2023/06/27 08:10:30;;;;;;;;;3.25;2.25;;;;;-143.57;100.00;65101.44;5100058;27;45503;-44
2023/06/27 08:12:55;;;;;;;;;5.00;3.50;;;;;-143.57;100.00;65101.44;5100129;27;45318;-45
2023/06/27 08:15:22;;;;;;;;;4.25;3.75;;;;;-143.57;100.00;65101.44;5100381;27;45539;-42
2023/06/27 08:17:48;;;;;;;;;5.00;5.00;;;;;-143.57;100.00;65101.44;5100089;27;45270;-42
2023/06/27 08:20:13;;;;;;;;;3.40;2.80;;;;;-143.57;100.00;65101.44;5099843;27;45393;-44
2023/06/27 08:22:39;;;;;;;;;3.75;2.50;;;;;-143.57;100.00;65101.44;5100114;27;45348;-44
2023/06/27 08:25:06;;;;;;;;;3.00;2.75;;;;;-143.57;100.00;65101.44;5100364;27;45352;-47
2023/06/27 08:27:31;;;;;;;;;3.60;2.00;;;;;-143.57;100.00;65101.44;5098763;27;45344;-44
2023/06/27 08:29:57;;;;;;;;;4.50;3.75;;;;;-143.57;100.00;65101.44;5099795;27;45392;-45
2023/06/27 08:32:22;;;;;;;;;6.00;3.00;;;;;-143.57;100.00;65101.44;5099621;27;45340;-45
2023/06/27 08:34:48;;;;;;;;;6.00;2.00;;;;;-143.57;100.00;65101.44;5100035;27;45314;-46
2023/06/27 08:37:13;;;;;;;;;4.00;2.00;;;;;-143.57;100.00;65101.44;5099654;27;45357;-44
2023/06/27 08:39:39;;;;;;;;;3.25;1.00;;;;;-143.57;100.00;65101.44;5099170;27;45371;-46
2023/06/27 08:42:05;;;;;;;;;2.20;2.20;;;;;-143.57;100.00;65101.44;5099693;27;45418;-42
2023/06/27 08:44:31;;;;;;;;;3.20;3.20;;;;;-143.57;100.00;65101.44;5100093;27;45448;-42
2023/06/27 08:47:01;;;;;;;;;4.25;2.50;;;;;-143.57;100.00;65101.44;5097983;27;47250;-41
2023/06/27 08:49:27;;;;;;;;;1.80;1.80;;;;;-143.57;100.00;65101.44;5099698;27;45486;-47
2023/06/27 08:51:56;;;;;;;;;2.00;2.00;;;;;-143.57;100.00;65101.44;5099310;27;45379;-42
2023/06/27 08:54:39;;;;;;;;;2.60;2.00;;;;;-143.57;100.00;65101.44;5099864;27;45330;-46
2023/06/27 08:57:06;;;;;;;;;2.40;2.40;;;;;-143.57;100.00;65101.44;5099349;27;45477;-44
2023/06/27 08:59:37;;;;;;;;;2.20;2.20;;;;;-143.57;100.00;65101.44;5099320;27;45270;-44
2023/06/27 09:02:05;;;;;;;;;1.80;1.80;;;;;-143.57;100.00;65101.44;5099656;27;45305;-42
2023/06/27 09:04:33;;;;;;;;;1.00;1.00;;;;;-143.57;100.00;65101.44;5099457;27;45387;-44
2023/06/27 09:06:59;;;;;;;;;5.20;2.80;;;;;-143.57;100.00;65101.44;5099151;27;46539;-42
2023/06/27 09:09:25;;;;;;;;;1.20;1.20;;;;;-143.57;100.00;65101.44;5098498;27;45358;-46
2023/06/27 09:11:52;;;;;;;;;3.25;2.00;;;;;-143.57;100.00;65101.44;5099234;27;45315;-46
2023/06/27 09:14:17;;;;;;;;;2.00;1.80;;;;;-143.57;100.00;65101.44;5099440;27;45304;-44
2023/06/27 09:16:43;;;;;;;;;3.00;1.00;;;;;-143.57;100.00;65101.44;5099156;27;46018;-43
2023/06/27 09:19:09;;;;;;;;;5.20;2.20;;;;;-143.57;100.00;65101.44;5099112;27;45382;-43
2023/06/27 09:21:35;;;;;;;;;3.00;1.25;;;;;-143.57;100.00;65101.44;5099038;27;45312;-41
2023/06/27 09:24:07;;;;;;;;;2.80;1.60;;;;;-143.57;100.00;65101.44;5099270;27;45390;-45
2023/06/27 09:26:33;;;;;;;;;2.00;1.80;;;;;-143.57;100.00;65101.44;5080525;27;46286;-45
2023/06/27 09:28:59;;;;;;;;;1.50;1.50;;;;;-143.57;100.00;65101.44;5098987;27;45389;-45
2023/06/27 09:31:26;;;;;;;;;0.20;0.20;;;;;-143.57;100.00;65101.44;5099186;27;45249;-42
2023/06/27 09:34:03;;;;;;;;;2.40;2.40;;;;;-143.57;100.00;65101.44;5099223;27;45230;-41
2023/06/27 09:36:33;;;;;;;;;2.80;1.20;;;;;-143.57;100.00;65101.44;5098808;27;45362;-41
2023/06/27 09:39:06;;;;;;;;;1.20;1.20;;;;;-143.57;100.00;65101.44;5097576;27;45334;-42
2023/06/27 09:41:47;;;;;;;;;2.00;2.00;;;;;-143.57;100.00;65101.44;5098816;27;45173;-43
2023/06/27 09:44:14;;;;;;;;;2.40;2.00;;;;;-143.57;100.00;65101.44;5098932;27;45539;-41
2023/06/27 09:46:42;;;;;;;;;6.00;3.00;;;;;-143.57;100.00;65101.44;5098379;27;47015;-45
2023/06/27 09:49:09;;;;;;;;;2.60;2.20;;;;;-143.57;100.00;65101.44;5098653;27;45252;-46
2023/06/27 09:51:34;;;;;;;;;7.20;6.00;;;;;-143.57;100.00;65101.44;5098806;27;45332;-44
2023/06/27 09:54:00;;;;;;;;;3.00;2.25;;;;;-143.57;100.00;65101.44;5097911;27;45562;-45
2023/06/27 09:56:29;;;;;;;;;2.00;2.00;;;;;-143.57;100.00;65101.44;5098191;27;45526;-44
2023/06/27 09:58:55;;;;;;;;;4.00;2.60;;;;;-143.57;100.00;65101.44;5098349;27;45440;-46
2023/06/27 10:01:24;;;;;;;;;1.60;1.60;;;;;-143.57;100.00;65101.44;5098391;27;45383;-47
2023/06/27 10:03:49;;;;;;;;;4.60;3.00;;;;;-143.57;100.00;65101.44;5097415;27;45369;-47
2023/06/27 10:06:15;;;;;;;;;5.25;3.50;;;;;-143.57;100.00;65101.44;5098228;27;46499;-45
2023/06/27 10:08:41;;;;;;;;;1.20;1.00;;;;;-143.57;100.00;65101.44;5079995;27;45375;-46
2023/06/27 10:11:06;;;;;;;;;2.25;2.25;;;;;-143.57;100.00;65101.44;5098324;27;45218;-46
2023/06/27 10:13:33;;;;;;;;;3.00;1.00;;;;;-143.57;100.00;65101.44;5098222;27;45426;-44
2023/06/27 10:15:59;;;;;;;;;1.60;1.60;;;;;-143.57;100.00;65101.44;5098013;27;45224;-43
2023/06/27 10:18:25;;;;;;;;;4.00;2.25;;;;;-143.57;100.00;65101.44;5098222;27;45649;-43
2023/06/27 10:20:54;;;;;;;;;5.00;1.60;;;;;-143.57;100.00;65101.44;5098404;27;45373;-45
2023/06/27 10:23:20;;;;;;;;;2.40;1.80;;;;;-143.57;100.00;65101.44;5098528;27;45266;-43
2023/06/27 10:25:46;;;;;;;;;3.60;2.40;;;;;-143.57;100.00;65101.44;5098134;27;46431;-44
2023/06/27 10:28:13;;;;;;;;;1.50;1.00;;;;;-143.57;100.00;65101.44;5084067;27;45211;-46
2023/06/27 10:30:46;;;;;;;;;4.60;1.80;;;;;-143.57;100.00;65101.44;5077652;28;45362;-46
2023/06/27 10:33:31;;;;;;;;;1.20;1.00;;;;;-143.57;100.00;65101.44;5077683;28;45282;-46
2023/06/27 10:36:05;;;;;;;;;3.20;1.80;;;;;-143.57;100.00;65101.44;5077310;28;46234;-45
2023/06/27 10:38:38;;;;;;;;;3.20;2.60;;;;;-143.57;100.00;65101.44;5077466;28;45351;-46
2023/06/27 10:41:05;;;;;;;;;3.40;2.20;;;;;-143.57;100.00;65101.44;5077663;28;45513;-44
2023/06/27 10:43:51;;;;;;;;;7.80;4.40;;;;;-143.57;100.00;65101.44;5077474;28;45354;-44
2023/06/27 10:46:26;;;;;;;;;4.00;4.00;;;;;-143.57;100.00;65101.44;5076249;28;46202;-42
2023/06/27 10:48:57;;;;;;;;;2.00;2.00;;;;;-143.57;100.00;65101.44;5077257;28;45345;-42
2023/06/27 10:51:24;;;;;;;;;2.60;1.00;;;;;-143.57;100.00;65101.44;5077507;28;45396;-41
2023/06/27 10:54:08;;;;;;;;;3.80;2.20;;;;;-143.57;100.00;65101.44;5077419;28;45317;-43
2023/06/27 10:56:44;;;;;;;;;1.80;1.40;;;;;-143.57;100.00;65101.44;5077124;28;46229;-44
2023/06/27 10:59:16;;;;;;;;;4.00;2.60;;;;;-143.57;100.00;65101.44;5077074;28;45446;-45
2023/06/27 11:02:02;;;;;;;;;3.60;3.60;;;;;-143.57;100.00;65101.44;5076910;28;45426;-42
2023/06/27 11:04:44;;;;;;;;;1.40;1.40;;;;;-143.57;100.00;65101.44;5077370;28;45399;-42
2023/06/27 11:07:17;;;;;;;;;3.40;2.00;;;;;-143.57;100.00;65101.44;5076806;28;47141;-43